CPD3 weather

Durham (Memorial Hospital) Heliport
Durham, Ontario, Canada

Public forecast

Using degrees Celsius for public forecast. Weather courtesy of forecast.io.

METAR (pilot weather report)

Closest report is Wiarton Airport, 35.8 nm (66.2 km) NNW. Retrieved 2019/09/19 05:00 UTC (13 minutes ago):

CYVV 190500Z 15009KT 15SM FEW250 15/12 A3020 RMK CI1 CI TR SLP229

TAF (pilot weather forecast)

Forecast is more than 6 hours old.

Closest forecast is Wiarton Airport, 35.8 nm (66.2 km) NNW. Retrieved 2019/09/18 20:00 UTC (9 hours ago):

TAF CYVV 181938Z 1820/1823 21008KT P6SM BKN240 BECMG 1821/1823 VRB03KT RMK NXT FCST WILL BE ISSUED AT 191045Z